Time;durP1;ratioP1;P1;durP2;ratioP2;P2;SDS_P1;SDS_P2;PMS_P1;PMS_P2;Temp;Humidity;BMP_temperature;BMP_pressure;BME280_temperature;BME280_humidity;BME280_pressure;Samples;Min_cycle;Max_cycle;Signal;HPM_P1;HPM_P2
2021/12/25 00:00:08;;;;;;;0.40;0.40;;;-4.50;99.90;;;;;;5115853;28;20425;-70
2021/12/25 00:02:57;;;;;;;0.50;0.50;;;-4.50;99.90;;;;;;5096520;28;20415;-70
2021/12/25 00:05:44;;;;;;;0.50;0.50;;;-4.50;99.90;;;;;;5094779;28;20805;-70
2021/12/25 00:08:32;;;;;;;0.50;0.50;;;-4.50;99.90;;;;;;5096880;28;20455;-70
2021/12/25 00:11:18;;;;;;;0.50;0.50;;;-4.50;99.90;;;;;;5111244;28;20442;-70
2021/12/25 00:14:11;;;;;;;0.40;0.40;;;-4.70;99.90;;;;;;5110784;28;20449;-70
2021/12/25 00:16:58;;;;;;;0.40;0.40;;;-4.70;99.90;;;;;;5111362;28;20443;-70
2021/12/25 00:19:46;;;;;;;0.40;0.40;;;-4.80;99.90;;;;;;5108362;28;20427;-69
2021/12/25 00:22:33;;;;;;;0.47;0.47;;;-4.80;99.90;;;;;;5102891;28;20427;-69
2021/12/25 00:25:21;;;;;;;0.50;0.50;;;-4.90;99.90;;;;;;5094968;28;20827;-69
2021/12/25 00:28:22;;;;;;;0.40;0.40;;;-4.90;99.90;;;;;;5094701;28;21048;-69
2021/12/25 00:31:23;;;;;;;0.40;0.40;;;-4.90;99.90;;;;;;5094063;28;20427;-69
2021/12/25 00:34:14;;;;;;;0.50;0.50;;;-5.00;99.90;;;;;;5094191;28;20501;-70
2021/12/25 00:37:02;;;;;;;0.40;0.40;;;-5.00;99.90;;;;;;5093981;28;20447;-69
2021/12/25 00:39:51;;;;;;;0.50;0.50;;;-5.00;99.90;;;;;;5094475;28;20998;-70
2021/12/25 00:42:38;;;;;;;0.40;0.40;;;-5.00;99.90;;;;;;5093740;28;20431;-69
2021/12/25 00:45:24;;;;;;;0.40;0.40;;;-5.00;99.90;;;;;;5095396;28;20435;-69
2021/12/25 00:48:11;;;;;;;0.50;0.50;;;-5.00;99.90;;;;;;5093717;28;20466;-69
2021/12/25 00:50:58;;;;;;;0.40;0.40;;;-5.00;99.90;;;;;;5093427;28;20489;-70
2021/12/25 00:53:47;;;;;;;0.50;0.50;;;-5.00;99.90;;;;;;5093222;28;20435;-69
2021/12/25 00:56:34;;;;;;;0.50;0.50;;;-4.90;99.90;;;;;;5093217;28;20462;-70
2021/12/25 00:59:20;;;;;;;0.50;0.50;;;-5.00;99.90;;;;;;5093098;28;20915;-70
2021/12/25 01:02:07;;;;;;;0.50;0.50;;;-5.10;99.90;;;;;;5109318;28;20460;-70
2021/12/25 01:04:54;;;;;;;0.40;0.40;;;-5.10;99.90;;;;;;5115588;28;20429;-69
2021/12/25 01:07:42;;;;;;;0.50;0.50;;;-5.10;99.90;;;;;;5116044;28;20800;-70
2021/12/25 01:10:32;;;;;;;0.47;0.47;;;-5.20;99.90;;;;;;5131360;28;20448;-70
2021/12/25 01:13:24;;;;;;;0.50;0.50;;;-5.20;99.90;;;;;;5131504;28;20493;-70
2021/12/25 01:16:25;;;;;;;0.50;0.50;;;-5.10;99.90;;;;;;5129938;28;20938;-69
2021/12/25 01:29:07;;;;;;;0.40;0.40;;;-5.20;99.90;;;;;;5113808;28;20484;-70
2021/12/25 01:32:10;;;;;;;0.50;0.50;;;-5.20;99.90;;;;;;5133316;28;20418;-70
2021/12/25 01:38:08;;;;;;;0.40;0.40;;;-5.40;99.90;;;;;;5132628;28;20406;-70
2021/12/25 01:41:05;;;;;;;0.40;0.40;;;-5.40;99.90;;;;;;5132587;28;20430;-70
2021/12/25 01:50:07;;;;;;;0.50;0.50;;;-5.50;99.90;;;;;;5113315;28;20553;-69
2021/12/25 01:52:56;;;;;;;0.40;0.40;;;-5.50;99.90;;;;;;5114527;28;20475;-69
2021/12/25 01:55:42;;;;;;;0.40;0.40;;;-5.60;99.90;;;;;;5114893;28;20446;-70
2021/12/25 01:58:30;;;;;;;0.50;0.50;;;-5.70;99.90;;;;;;5114112;28;20958;-69
2021/12/25 02:01:19;;;;;;;0.40;0.40;;;-5.70;99.90;;;;;;5114052;28;20507;-70
2021/12/25 02:04:06;;;;;;;0.40;0.40;;;-5.80;99.90;;;;;;5113153;28;20794;-70
2021/12/25 02:06:53;;;;;;;0.40;0.40;;;-5.90;99.90;;;;;;5113241;28;20448;-69
2021/12/25 02:09:40;;;;;;;0.50;0.50;;;-5.90;99.90;;;;;;5111089;28;20465;-69
2021/12/25 02:12:28;;;;;;;0.50;0.50;;;-6.00;99.90;;;;;;5093593;28;20939;-69
2021/12/25 02:15:19;;;;;;;0.60;0.60;;;-6.00;99.90;;;;;;5093491;28;20509;-69
2021/12/25 02:18:12;;;;;;;0.40;0.40;;;-6.00;99.90;;;;;;5109343;28;20471;-70
2021/12/25 02:21:08;;;;;;;0.50;0.50;;;-6.00;99.90;;;;;;5113049;28;20414;-70
2021/12/25 02:23:57;;;;;;;0.47;0.47;;;-6.00;99.90;;;;;;5113302;28;20422;-71
2021/12/25 02:26:46;;;;;;;0.40;0.40;;;-6.00;99.90;;;;;;5112905;28;20438;-70
2021/12/25 02:29:33;;;;;;;0.40;0.40;;;-5.90;99.90;;;;;;5112684;28;20462;-69
2021/12/25 02:32:20;;;;;;;0.40;0.40;;;-6.00;99.90;;;;;;5113291;28;20479;-70
2021/12/25 02:35:07;;;;;;;0.50;0.50;;;-6.00;99.90;;;;;;5113164;28;20957;-70
2021/12/25 02:37:56;;;;;;;0.50;0.50;;;-6.00;99.90;;;;;;5113072;28;20418;-69
2021/12/25 02:40:43;;;;;;;0.40;0.40;;;-6.10;99.90;;;;;;5113706;28;20958;-69
2021/12/25 02:43:30;;;;;;;0.40;0.40;;;-6.10;99.90;;;;;;5113273;28;20465;-69
2021/12/25 02:46:17;;;;;;;0.40;0.40;;;-6.10;99.90;;;;;;5114963;28;20465;-70
2021/12/25 02:49:08;;;;;;;0.50;0.50;;;-6.10;99.90;;;;;;5113061;28;21000;-69
2021/12/25 02:51:55;;;;;;;0.40;0.40;;;-6.10;99.90;;;;;;5112905;28;20960;-70
2021/12/25 02:54:44;;;;;;;0.47;0.47;;;-6.10;99.90;;;;;;5112477;28;20448;-69
2021/12/25 02:57:31;;;;;;;0.40;0.40;;;-6.10;99.90;;;;;;5115261;28;20473;-69
2021/12/25 03:00:19;;;;;;;0.40;0.40;;;-6.20;99.90;;;;;;5122416;28;20418;-70
2021/12/25 03:03:07;;;;;;;1.73;1.63;;;-6.00;99.90;;;;;;5128728;28;20419;-69
2021/12/25 03:05:54;;;;;;;0.43;0.43;;;-6.10;99.90;;;;;;5119697;28;21012;-70
2021/12/25 03:08:43;;;;;;;0.40;0.40;;;-6.20;99.90;;;;;;5116671;28;20465;-69
2021/12/25 03:11:31;;;;;;;0.40;0.40;;;-6.20;99.90;;;;;;5113977;28;20934;-70
2021/12/25 03:14:32;;;;;;;0.50;0.50;;;-6.20;99.90;;;;;;5110855;28;20418;-69
2021/12/25 03:17:19;;;;;;;0.40;0.40;;;-6.30;99.90;;;;;;5112891;28;20434;-70
2021/12/25 03:20:08;;;;;;;0.40;0.40;;;-6.20;99.90;;;;;;5112419;28;20414;-69
2021/12/25 03:22:55;;;;;;;0.40;0.40;;;-6.30;99.90;;;;;;5112165;28;20422;-69
2021/12/25 03:25:44;;;;;;;0.40;0.40;;;-6.30;99.90;;;;;;5112879;28;20498;-69
2021/12/25 03:28:37;;;;;;;0.40;0.40;;;-6.40;99.90;;;;;;5112929;28;20426;-69
2021/12/25 03:31:23;;;;;;;0.40;0.40;;;-6.40;99.90;;;;;;5113088;28;20426;-69
2021/12/25 03:34:10;;;;;;;0.50;0.50;;;-6.40;99.90;;;;;;5112516;28;20776;-69
2021/12/25 03:36:58;;;;;;;0.40;0.40;;;-6.40;99.90;;;;;;5112424;28;20434;-69
2021/12/25 03:39:44;;;;;;;0.50;0.50;;;-6.40;99.90;;;;;;5112850;28;20419;-70
2021/12/25 03:42:31;;;;;;;0.50;0.50;;;-6.40;99.90;;;;;;5112673;28;20422;-70
2021/12/25 03:45:20;;;;;;;0.40;0.40;;;-6.50;99.90;;;;;;5113064;28;20430;-70
2021/12/25 03:48:12;;;;;;;0.40;0.40;;;-6.50;99.90;;;;;;5111830;28;20426;-70
2021/12/25 04:00:15;;;;;;;0.40;0.40;;;-6.40;99.90;;;;;;5115860;28;20888;-70
2021/12/25 04:03:09;;;;;;;0.50;0.50;;;-6.50;99.90;;;;;;5096297;28;20506;-70
2021/12/25 04:05:56;;;;;;;0.40;0.40;;;-6.50;99.90;;;;;;5095509;28;20446;-71
2021/12/25 04:08:46;;;;;;;0.80;0.80;;;-6.50;99.90;;;;;;5094617;28;20978;-70
2021/12/25 04:11:35;;;;;;;0.40;0.40;;;-6.40;99.90;;;;;;5093343;28;20508;-71
2021/12/25 04:14:22;;;;;;;0.40;0.40;;;-6.50;99.90;;;;;;5093266;28;20419;-70
2021/12/25 04:17:09;;;;;;;0.40;0.40;;;-6.50;99.90;;;;;;5112152;28;20472;-70
2021/12/25 04:19:57;;;;;;;0.40;0.40;;;-6.50;99.90;;;;;;5114254;28;20424;-70
2021/12/25 04:22:48;;;;;;;0.40;0.40;;;-6.60;99.90;;;;;;5115430;28;20426;-69
2021/12/25 04:25:36;;;;;;;0.40;0.40;;;-6.60;99.90;;;;;;5115554;28;20438;-70
2021/12/25 04:28:34;;;;;;;0.47;0.47;;;-6.60;99.90;;;;;;5115403;28;20433;-70
2021/12/25 04:31:32;;;;;;;0.40;0.40;;;-6.60;99.90;;;;;;5115609;28;20442;-70
2021/12/25 04:50:15;;;;;;;0.40;0.40;;;-6.70;99.90;;;;;;5050595;28;20437;-70
2021/12/25 05:02:26;;;;;;;0.40;0.40;;;-6.80;99.90;;;;;;5113379;28;20513;-71
2021/12/25 05:05:16;;;;;;;0.40;0.40;;;-6.70;99.90;;;;;;5114696;28;20421;-71
2021/12/25 05:08:07;;;;;;;0.50;0.50;;;-6.90;99.90;;;;;;5115107;28;20919;-71
2021/12/25 05:10:54;;;;;;;0.40;0.40;;;-6.90;99.90;;;;;;5114762;28;20418;-71
2021/12/25 05:13:42;;;;;;;0.40;0.40;;;-7.00;99.90;;;;;;5114102;28;20950;-71
2021/12/25 05:16:29;;;;;;;0.50;0.50;;;-7.00;99.90;;;;;;5114876;28;20453;-71
2021/12/25 05:19:15;;;;;;;0.40;0.40;;;-7.00;99.90;;;;;;5114481;28;20527;-71
2021/12/25 05:22:03;;;;;;;0.50;0.50;;;-7.00;99.90;;;;;;5114964;28;20422;-69
2021/12/25 05:24:52;;;;;;;0.50;0.50;;;-6.90;99.90;;;;;;5112367;28;20433;-71
2021/12/25 05:27:39;;;;;;;0.50;0.50;;;-6.90;99.90;;;;;;5114115;28;20445;-70
2021/12/25 05:30:26;;;;;;;0.50;0.50;;;-6.90;99.90;;;;;;5114416;28;20441;-70
2021/12/25 05:33:13;;;;;;;0.50;0.50;;;-6.90;99.90;;;;;;5114258;28;20437;-71
2021/12/25 05:36:00;;;;;;;0.40;0.40;;;-6.90;99.90;;;;;;5114030;28;20437;-71
2021/12/25 05:38:47;;;;;;;0.50;0.50;;;-6.90;99.90;;;;;;5113954;28;20468;-70
2021/12/25 05:41:35;;;;;;;0.40;0.40;;;-6.90;99.90;;;;;;5131318;28;20429;-71
2021/12/25 05:44:22;;;;;;;0.40;0.40;;;-7.00;99.90;;;;;;5134072;28;20417;-71
2021/12/25 05:47:09;;;;;;;0.40;0.40;;;-7.00;99.90;;;;;;5133989;28;20488;-71
2021/12/25 05:49:56;;;;;;;0.50;0.50;;;-7.00;99.90;;;;;;5132913;28;20415;-71
2021/12/25 05:52:43;;;;;;;0.40;0.40;;;-6.90;99.90;;;;;;5127842;28;20921;-72
2021/12/25 05:55:30;;;;;;;0.40;0.40;;;-7.00;99.90;;;;;;5122391;28;20803;-70
2021/12/25 05:58:18;;;;;;;0.40;0.40;;;-6.90;99.90;;;;;;5114838;28;20851;-70
2021/12/25 06:01:07;;;;;;;0.50;0.50;;;-6.90;99.90;;;;;;5113597;28;20473;-70
2021/12/25 06:03:53;;;;;;;0.40;0.40;;;-7.00;99.90;;;;;;5111796;28;20822;-71
2021/12/25 06:06:40;;;;;;;0.40;0.40;;;-7.00;99.90;;;;;;5113330;28;20450;-70
2021/12/25 06:09:27;;;;;;;0.40;0.40;;;-7.00;99.90;;;;;;5112858;28;20410;-71
2021/12/25 06:12:15;;;;;;;0.50;0.50;;;-7.00;99.90;;;;;;5113335;28;20935;-70
2021/12/25 06:15:05;;;;;;;0.50;0.50;;;-7.10;99.90;;;;;;5113221;28;20775;-71
2021/12/25 06:17:52;;;;;;;0.50;0.50;;;-7.10;99.90;;;;;;5112931;28;20425;-70
2021/12/25 06:20:40;;;;;;;0.40;0.40;;;-7.10;99.90;;;;;;5112646;28;20454;-71
2021/12/25 06:23:29;;;;;;;0.40;0.40;;;-7.10;99.90;;;;;;5113357;28;20427;-70
2021/12/25 06:26:16;;;;;;;0.40;0.40;;;-7.20;99.90;;;;;;5113469;28;20445;-71
2021/12/25 06:29:04;;;;;;;0.40;0.40;;;-7.10;99.90;;;;;;5112579;28;20425;-68
2021/12/25 06:31:52;;;;;;;0.40;0.40;;;-7.10;99.90;;;;;;5113452;28;20418;-69
2021/12/25 06:34:40;;;;;;;0.43;0.43;;;-7.10;99.90;;;;;;5114223;28;20418;-69
2021/12/25 06:37:27;;;;;;;0.40;0.40;;;-7.10;99.90;;;;;;5112253;28;20442;-69
2021/12/25 06:40:17;;;;;;;0.40;0.40;;;-7.10;99.90;;;;;;5113909;28;20534;-69
2021/12/25 06:43:04;;;;;;;0.40;0.40;;;-7.20;99.90;;;;;;5114513;28;20422;-69
2021/12/25 06:45:51;;;;;;;0.40;0.40;;;-7.20;99.90;;;;;;5113414;28;20974;-69
2021/12/25 06:48:41;;;;;;;0.40;0.40;;;-7.10;99.90;;;;;;5113380;28;20783;-69
2021/12/25 06:51:28;;;;;;;0.40;0.40;;;-7.20;99.90;;;;;;5113904;28;20414;-69
2021/12/25 06:54:15;;;;;;;0.40;0.40;;;-7.30;99.90;;;;;;5118547;28;20961;-70
2021/12/25 06:57:03;;;;;;;0.40;0.40;;;-7.30;99.90;;;;;;5114327;28;20453;-69
2021/12/25 06:59:50;;;;;;;0.40;0.40;;;-7.30;99.90;;;;;;5114555;28;20457;-70
2021/12/25 07:02:36;;;;;;;0.47;0.47;;;-7.30;99.90;;;;;;5113755;28;20954;-69
2021/12/25 07:05:25;;;;;;;0.40;0.40;;;-7.30;99.90;;;;;;5114583;28;20475;-69
2021/12/25 07:08:12;;;;;;;0.40;0.40;;;-7.30;99.90;;;;;;5113835;28;20433;-70
2021/12/25 07:10:59;;;;;;;0.40;0.40;;;-7.40;99.90;;;;;;5113424;28;20950;-72
2021/12/25 07:13:46;;;;;;;0.40;0.40;;;-7.30;99.90;;;;;;5114012;28;20430;-70
2021/12/25 07:16:33;;;;;;;0.40;0.40;;;-7.30;99.90;;;;;;5113167;28;20438;-70
2021/12/25 07:19:20;;;;;;;0.50;0.50;;;-7.30;99.90;;;;;;5113256;28;20426;-70
2021/12/25 07:22:08;;;;;;;0.40;0.40;;;-7.30;99.90;;;;;;5113199;28;20836;-69
2021/12/25 07:24:55;;;;;;;0.40;0.40;;;-7.40;99.90;;;;;;5113377;28;20434;-69
2021/12/25 07:27:42;;;;;;;0.40;0.40;;;-7.30;99.90;;;;;;5113058;28;20438;-70
2021/12/25 07:30:29;;;;;;;0.40;0.40;;;-7.30;99.90;;;;;;5114507;28;20410;-70
2021/12/25 07:33:16;;;;;;;0.50;0.50;;;-7.40;99.90;;;;;;5116733;28;20425;-69
2021/12/25 07:36:04;;;;;;;0.40;0.40;;;-7.30;99.90;;;;;;5116612;28;20446;-69
2021/12/25 07:38:53;;;;;;;0.50;0.50;;;-7.30;99.90;;;;;;5114565;28;20424;-70
2021/12/25 07:41:40;;;;;;;0.40;0.40;;;-7.30;99.90;;;;;;5117757;28;20454;-69
2021/12/25 07:44:27;;;;;;;0.40;0.40;;;-7.30;99.90;;;;;;5116889;28;20846;-69
2021/12/25 07:47:15;;;;;;;0.40;0.40;;;-7.30;99.90;;;;;;5116834;28;20521;-69
2021/12/25 07:50:03;;;;;;;0.40;0.40;;;-7.30;99.90;;;;;;5116769;28;20420;-69
2021/12/25 07:52:50;;;;;;;0.40;0.40;;;-7.20;99.90;;;;;;5116748;28;20424;-69
2021/12/25 07:55:39;;;;;;;0.40;0.40;;;-7.10;99.90;;;;;;5116121;28;20437;-70
2021/12/25 07:58:27;;;;;;;0.40;0.40;;;-7.10;99.90;;;;;;5117581;28;20429;-70
2021/12/25 08:01:14;;;;;;;0.40;0.40;;;-7.10;99.90;;;;;;5116599;28;20469;-69
2021/12/25 08:04:01;;;;;;;0.40;0.40;;;-7.00;99.90;;;;;;5116864;28;20426;-70
2021/12/25 08:06:48;;;;;;;0.40;0.40;;;-6.90;99.90;;;;;;5115974;28;20449;-70
2021/12/25 08:09:36;;;;;;;0.50;0.50;;;-6.90;99.90;;;;;;5116017;28;20421;-69
2021/12/25 08:12:25;;;;;;;0.40;0.40;;;-6.80;99.90;;;;;;5116447;28;20418;-70
2021/12/25 08:15:13;;;;;;;0.40;0.40;;;-6.70;99.90;;;;;;5115840;28;20503;-70
2021/12/25 08:18:01;;;;;;;0.50;0.50;;;-6.70;99.90;;;;;;5115226;28;20426;-69
2021/12/25 08:20:48;;;;;;;0.40;0.40;;;-6.60;99.90;;;;;;5115024;28;20450;-69
2021/12/25 08:23:35;;;;;;;0.40;0.40;;;-6.60;99.90;;;;;;5115879;28;20445;-69
2021/12/25 08:26:22;;;;;;;0.40;0.40;;;-6.60;99.90;;;;;;5116158;28;20446;-69
2021/12/25 08:29:11;;;;;;;0.43;0.43;;;-6.50;99.90;;;;;;5113766;28;20446;-69
2021/12/25 08:31:58;;;;;;;0.40;0.40;;;-6.50;99.90;;;;;;5115421;28;20429;-69
2021/12/25 08:34:45;;;;;;;0.40;0.40;;;-6.50;99.90;;;;;;5115701;28;20422;-69
2021/12/25 08:37:32;;;;;;;0.40;0.40;;;-6.50;99.90;;;;;;5114678;28;20851;-71
2021/12/25 08:40:19;;;;;;;0.40;0.40;;;-6.40;99.90;;;;;;5114608;28;20454;-69
2021/12/25 08:43:06;;;;;;;0.50;0.50;;;-6.40;99.90;;;;;;5115584;28;20425;-69
2021/12/25 08:46:03;;;;;;;0.40;0.40;;;-6.30;99.90;;;;;;5114680;28;20997;-69
2021/12/25 08:48:52;;;;;;;0.50;0.50;;;-6.30;99.90;;;;;;5114407;28;20795;-69
2021/12/25 08:51:39;;;;;;;0.40;0.40;;;-6.20;99.90;;;;;;5115024;28;20478;-70
2021/12/25 08:54:26;;;;;;;0.50;0.50;;;-6.20;99.90;;;;;;5114973;28;20457;-69
2021/12/25 08:57:13;;;;;;;0.50;0.50;;;-6.10;99.90;;;;;;5114337;28;20441;-69
2021/12/25 08:59:59;;;;;;;0.40;0.40;;;-6.10;99.90;;;;;;5114702;28;20426;-69
2021/12/25 09:02:49;;;;;;;0.40;0.40;;;-6.10;99.90;;;;;;5095048;28;20850;-69
2021/12/25 09:05:36;;;;;;;0.50;0.50;;;-6.10;99.90;;;;;;5093100;28;20460;-69
2021/12/25 09:08:24;;;;;;;0.40;0.40;;;-5.90;99.90;;;;;;5109885;28;20430;-70
2021/12/25 09:11:10;;;;;;;0.40;0.40;;;-5.90;99.90;;;;;;5111619;28;20419;-69
2021/12/25 09:13:57;;;;;;;0.50;0.50;;;-5.90;99.90;;;;;;5110300;28;20438;-70
2021/12/25 09:16:44;;;;;;;0.40;0.40;;;-5.90;99.90;;;;;;5108004;28;20443;-70
2021/12/25 09:19:32;;;;;;;0.40;0.40;;;-5.80;99.90;;;;;;5101417;28;20434;-69
2021/12/25 09:22:19;;;;;;;0.40;0.40;;;-5.70;99.90;;;;;;5094464;28;20419;-69
2021/12/25 09:25:07;;;;;;;0.40;0.40;;;-5.70;99.90;;;;;;5092897;28;20431;-69
2021/12/25 09:27:54;;;;;;;0.50;0.50;;;-5.60;99.90;;;;;;5093111;28;20423;-70
2021/12/25 09:30:42;;;;;;;0.43;0.43;;;-5.60;99.90;;;;;;5092622;28;20427;-69
2021/12/25 09:33:30;;;;;;;0.40;0.40;;;-5.60;99.90;;;;;;5093677;28;20940;-69
2021/12/25 09:36:18;;;;;;;0.40;0.40;;;-5.50;99.90;;;;;;5092495;28;20592;-69
2021/12/25 09:39:07;;;;;;;0.40;0.40;;;-5.50;99.90;;;;;;5092648;28;20422;-69
2021/12/25 09:41:54;;;;;;;0.50;0.50;;;-5.40;99.90;;;;;;5093297;28;20481;-69
2021/12/25 09:44:41;;;;;;;0.50;0.50;;;-5.40;99.90;;;;;;5093901;28;20419;-69
2021/12/25 09:47:28;;;;;;;0.40;0.40;;;-5.40;99.90;;;;;;5092585;28;20969;-69
2021/12/25 09:50:15;;;;;;;0.40;0.40;;;-5.50;99.90;;;;;;5091385;28;20822;-69
2021/12/25 09:53:07;;;;;;;0.40;0.40;;;-5.40;99.90;;;;;;5092238;28;20959;-69
2021/12/25 09:55:54;;;;;;;0.40;0.40;;;-5.50;99.90;;;;;;5092105;28;21041;-69
2021/12/25 09:58:43;;;;;;;0.40;0.40;;;-5.50;99.90;;;;;;5091519;28;20422;-69
2021/12/25 10:01:36;;;;;;;0.40;0.40;;;-5.50;99.90;;;;;;5102394;28;20458;-69
2021/12/25 10:04:38;;;;;;;0.40;0.40;;;-5.60;99.90;;;;;;5113276;28;20418;-69
2021/12/25 10:07:27;;;;;;;0.50;0.50;;;-5.50;99.90;;;;;;5112606;28;20446;-70
2021/12/25 10:10:16;;;;;;;0.50;0.50;;;-5.50;99.90;;;;;;5111758;28;20418;-69
2021/12/25 10:13:03;;;;;;;0.40;0.40;;;-5.40;99.90;;;;;;5112110;28;20473;-70
2021/12/25 10:15:51;;;;;;;0.40;0.40;;;-5.40;99.90;;;;;;5111781;28;20438;-69
2021/12/25 10:18:38;;;;;;;0.50;0.50;;;-5.20;99.90;;;;;;5111892;28;20479;-69
2021/12/25 10:21:28;;;;;;;0.40;0.40;;;-5.20;99.90;;;;;;5112261;28;20476;-70
2021/12/25 10:24:24;;;;;;;0.40;0.40;;;-5.10;99.90;;;;;;5111965;28;20421;-69
2021/12/25 10:27:15;;;;;;;0.40;0.40;;;-5.00;99.90;;;;;;5112245;28;20622;-69
2021/12/25 10:30:06;;;;;;;0.40;0.40;;;-4.90;99.90;;;;;;5111587;28;20426;-69
2021/12/25 10:32:53;;;;;;;1.80;0.90;;;-4.80;99.90;;;;;;5112043;28;20429;-69
2021/12/25 10:35:40;;;;;;;0.40;0.40;;;-4.80;99.90;;;;;;5111971;28;21090;-69
2021/12/25 10:38:28;;;;;;;0.40;0.40;;;-4.80;99.90;;;;;;5111847;28;20422;-69
2021/12/25 10:41:20;;;;;;;0.50;0.50;;;-4.70;99.90;;;;;;5111346;28;20464;-69
2021/12/25 10:44:15;;;;;;;0.50;0.50;;;-4.70;99.90;;;;;;5111981;28;20426;-69
2021/12/25 10:47:05;;;;;;;0.40;0.40;;;-4.60;99.90;;;;;;5118516;28;20458;-70
2021/12/25 10:49:54;;;;;;;0.40;0.40;;;-4.60;99.90;;;;;;5129416;28;20434;-70
2021/12/25 10:52:46;;;;;;;1.70;1.60;;;-4.50;99.90;;;;;;5130559;28;20475;-70
2021/12/25 10:55:37;;;;;;;0.50;0.50;;;-4.50;99.90;;;;;;5129877;28;20991;-70
2021/12/25 10:58:25;;;;;;;0.40;0.40;;;-4.60;99.90;;;;;;5130867;28;20422;-70
2021/12/25 11:01:15;;;;;;;0.40;0.40;;;-4.40;99.90;;;;;;5130688;28;20483;-70
2021/12/25 11:04:03;;;;;;;0.40;0.40;;;-4.40;99.90;;;;;;5136552;28;20626;-70
2021/12/25 11:06:50;;;;;;;0.50;0.50;;;-4.40;99.90;;;;;;5135813;28;20454;-72
2021/12/25 11:09:37;;;;;;;0.40;0.40;;;-4.40;99.90;;;;;;5137746;28;20425;-70
2021/12/25 11:12:24;;;;;;;0.40;0.40;;;-4.30;99.90;;;;;;5138398;28;20429;-70
2021/12/25 11:15:14;;;;;;;0.40;0.40;;;-4.30;99.90;;;;;;5137076;28;20446;-70
2021/12/25 11:18:08;;;;;;;0.40;0.40;;;-4.30;99.90;;;;;;5136451;28;20777;-70
2021/12/25 11:20:55;;;;;;;0.50;0.50;;;-4.30;99.90;;;;;;5137131;28;20437;-70
2021/12/25 11:23:42;;;;;;;0.50;0.50;;;-4.30;99.90;;;;;;5123571;28;20425;-70
2021/12/25 11:26:29;;;;;;;0.40;0.40;;;-4.10;99.90;;;;;;5116376;28;20438;-70
2021/12/25 11:29:19;;;;;;;0.40;0.40;;;-4.10;99.90;;;;;;5115876;28;20422;-69
2021/12/25 11:32:08;;;;;;;0.40;0.40;;;-4.10;99.90;;;;;;5116346;28;20422;-69
2021/12/25 11:34:58;;;;;;;0.43;0.43;;;-4.10;99.90;;;;;;5115313;28;20475;-69
2021/12/25 11:37:45;;;;;;;0.50;0.50;;;-4.10;99.90;;;;;;5114890;28;20429;-69
2021/12/25 11:40:34;;;;;;;0.40;0.40;;;-4.00;99.90;;;;;;5116310;28;20926;-69
2021/12/25 11:43:39;;;;;;;0.40;0.40;;;-4.10;99.90;;;;;;5116528;28;20414;-69
2021/12/25 11:46:38;;;;;;;0.40;0.40;;;-4.00;99.90;;;;;;5116307;28;20452;-70
2021/12/25 11:49:25;;;;;;;0.40;0.40;;;-4.00;99.90;;;;;;5115846;28;20410;-69
2021/12/25 11:52:18;;;;;;;0.50;0.50;;;-4.00;99.90;;;;;;5116101;28;20953;-69
2021/12/25 11:55:33;;;;;;;0.40;0.40;;;-4.00;99.90;;;;;;5123028;28;20509;-71
2021/12/25 11:58:43;;;;;;;0.40;0.40;;;-3.90;99.90;;;;;;5134123;28;20426;-70
2021/12/25 12:01:34;;;;;;;0.40;0.40;;;-3.90;99.90;;;;;;5133967;28;20450;-70
2021/12/25 12:04:24;;;;;;;0.50;0.50;;;-3.90;99.90;;;;;;5132442;28;20422;-71
2021/12/25 12:07:13;;;;;;;0.50;0.50;;;-3.80;99.90;;;;;;5128727;28;20866;-69
2021/12/25 12:10:03;;;;;;;0.50;0.50;;;-3.80;99.90;;;;;;5118179;28;20418;-69
2021/12/25 12:12:50;;;;;;;0.50;0.50;;;-3.80;99.90;;;;;;5117408;28;20479;-69
2021/12/25 12:15:46;;;;;;;0.40;0.40;;;-3.70;99.90;;;;;;5116115;28;20470;-69
2021/12/25 12:18:38;;;;;;;0.40;0.40;;;-3.70;99.90;;;;;;5116281;28;20958;-70
2021/12/25 12:21:41;;;;;;;0.40;0.40;;;-3.80;99.90;;;;;;5115939;28;20465;-69
2021/12/25 12:24:46;;;;;;;0.40;0.40;;;-3.80;99.90;;;;;;5117131;28;20418;-70
2021/12/25 12:27:38;;;;;;;0.50;0.50;;;-3.70;99.90;;;;;;5116286;28;20442;-69
2021/12/25 12:30:46;;;;;;;0.47;0.47;;;-3.70;99.90;;;;;;5115712;28;20434;-69
2021/12/25 12:33:35;;;;;;;0.40;0.40;;;-3.70;99.90;;;;;;5115266;28;20418;-69
2021/12/25 12:36:29;;;;;;;0.50;0.50;;;-3.70;99.90;;;;;;5115236;28;20487;-69
2021/12/25 12:39:19;;;;;;;0.50;0.50;;;-3.70;99.90;;;;;;5116110;28;20428;-69
2021/12/25 12:42:08;;;;;;;0.40;0.40;;;-3.70;99.90;;;;;;5116381;28;20454;-69
2021/12/25 12:45:10;;;;;;;0.40;0.40;;;-3.70;99.90;;;;;;5116535;28;20432;-68
2021/12/25 12:48:15;;;;;;;0.40;0.40;;;-3.70;99.90;;;;;;5116719;28;20422;-69
2021/12/25 12:51:02;;;;;;;0.40;0.40;;;-3.70;99.90;;;;;;5114096;28;20430;-70
2021/12/25 12:53:49;;;;;;;0.40;0.40;;;-3.60;99.90;;;;;;5115641;28;20422;-69
2021/12/25 12:56:56;;;;;;;0.40;0.40;;;-3.60;99.90;;;;;;5114374;28;20541;-69
2021/12/25 12:59:44;;;;;;;0.40;0.40;;;-3.60;99.90;;;;;;5113382;28;20430;-69
2021/12/25 13:02:40;;;;;;;0.40;0.40;;;-3.60;99.90;;;;;;5113564;28;20466;-70
2021/12/25 13:05:31;;;;;;;0.50;0.50;;;-3.50;99.90;;;;;;5115279;28;20422;-69
2021/12/25 13:08:20;;;;;;;0.50;0.50;;;-3.70;99.90;;;;;;5114685;28;20426;-69
2021/12/25 13:11:12;;;;;;;0.40;0.40;;;-3.60;99.90;;;;;;5114888;28;20423;-69
2021/12/25 13:14:03;;;;;;;0.40;0.40;;;-3.60;99.90;;;;;;5113904;28;20425;-70
2021/12/25 13:16:50;;;;;;;0.40;0.40;;;-3.50;99.90;;;;;;5114845;28;20591;-70
2021/12/25 13:19:47;;;;;;;0.40;0.40;;;-3.40;99.90;;;;;;5114478;28;20433;-69
2021/12/25 13:22:34;;;;;;;0.40;0.40;;;-3.50;99.90;;;;;;5114507;28;20485;-69
2021/12/25 13:25:21;;;;;;;0.40;0.40;;;-3.30;99.90;;;;;;5113511;28;20425;-69
2021/12/25 13:28:08;;;;;;;0.40;0.40;;;-3.30;99.90;;;;;;5113436;28;20434;-69
2021/12/25 13:30:57;;;;;;;0.40;0.40;;;-3.20;99.90;;;;;;5113919;28;20807;-69
2021/12/25 13:33:47;;;;;;;0.40;0.40;;;-3.10;99.90;;;;;;5113074;28;20486;-69
2021/12/25 13:36:36;;;;;;;0.40;0.40;;;-3.10;99.90;;;;;;5112364;28;20449;-69
2021/12/25 13:39:27;;;;;;;0.40;0.40;;;-2.90;99.90;;;;;;5113694;28;20430;-69
2021/12/25 13:42:16;;;;;;;0.40;0.40;;;-2.50;99.90;;;;;;5112423;28;20479;-69
2021/12/25 13:45:04;;;;;;;0.40;0.40;;;-2.40;99.90;;;;;;5110279;28;20436;-69
2021/12/25 13:47:57;;;;;;;0.40;0.40;;;-2.20;99.90;;;;;;5092594;28;20415;-69
2021/12/25 13:50:44;;;;;;;0.40;0.40;;;-1.90;99.90;;;;;;5091941;28;20426;-69
2021/12/25 13:53:32;;;;;;;0.40;0.40;;;-1.50;99.90;;;;;;5092044;28;20427;-69
2021/12/25 13:56:19;;;;;;;0.40;0.40;;;-1.20;99.90;;;;;;5092283;28;20470;-69
2021/12/25 13:59:09;;;;;;;0.40;0.40;;;-1.00;99.90;;;;;;5091617;28;21020;-68
2021/12/25 14:02:00;;;;;;;0.40;0.40;;;-1.40;99.90;;;;;;5091845;28;20549;-68
2021/12/25 14:04:51;;;;;;;0.40;0.40;;;-1.90;99.90;;;;;;5092843;28;20427;-68
2021/12/25 14:07:40;;;;;;;0.43;0.43;;;-2.20;99.90;;;;;;5091657;28;20447;-68
2021/12/25 14:10:30;;;;;;;0.40;0.40;;;-2.70;99.90;;;;;;5091194;28;20419;-68
2021/12/25 14:13:19;;;;;;;0.40;0.40;;;-2.90;99.90;;;;;;5092914;28;20419;-69
2021/12/25 14:16:07;;;;;;;0.40;0.40;;;-3.10;99.90;;;;;;5092136;28;20462;-68
2021/12/25 14:18:54;;;;;;;0.50;0.50;;;-3.30;99.90;;;;;;5093082;28;20817;-68
2021/12/25 14:21:51;;;;;;;0.40;0.40;;;-3.50;99.90;;;;;;5093455;28;20455;-68
2021/12/25 14:24:42;;;;;;;0.40;0.40;;;-3.50;99.90;;;;;;5093949;28;20438;-68
2021/12/25 14:27:31;;;;;;;0.40;0.40;;;-3.70;99.90;;;;;;5092272;28;20443;-69
2021/12/25 14:30:17;;;;;;;0.40;0.40;;;-3.80;99.90;;;;;;5092163;28;20415;-68
2021/12/25 14:33:05;;;;;;;0.40;0.40;;;-3.80;99.90;;;;;;5093173;28;20437;-68
2021/12/25 14:35:52;;;;;;;0.40;0.40;;;-3.90;99.90;;;;;;5092801;28;20504;-69
2021/12/25 14:38:40;;;;;;;0.40;0.40;;;-4.00;99.90;;;;;;5091405;28;20916;-69
2021/12/25 14:41:33;;;;;;;0.40;0.40;;;-4.10;99.90;;;;;;5092555;28;20419;-69
2021/12/25 14:44:24;;;;;;;0.50;0.50;;;-4.10;99.90;;;;;;5090981;28;20415;-70
2021/12/25 14:47:13;;;;;;;0.40;0.40;;;-4.20;99.90;;;;;;5093097;28;20448;-69
2021/12/25 14:50:01;;;;;;;0.40;0.40;;;-4.30;99.90;;;;;;5105630;28;20524;-69
2021/12/25 14:53:06;;;;;;;0.40;0.40;;;-4.40;99.90;;;;;;5111742;28;20423;-69
2021/12/25 14:55:55;;;;;;;0.40;0.40;;;-4.40;99.90;;;;;;5108484;28;20465;-69
2021/12/25 14:58:48;;;;;;;0.40;0.40;;;-4.50;99.90;;;;;;5107217;28;20457;-69
2021/12/25 15:01:39;;;;;;;0.40;0.40;;;-4.60;99.90;;;;;;5103423;28;20833;-70
2021/12/25 15:04:29;;;;;;;0.40;0.40;;;-4.60;99.90;;;;;;5094164;28;20423;-69
2021/12/25 15:07:16;;;;;;;0.40;0.40;;;-4.70;99.90;;;;;;5092706;28;20447;-69
2021/12/25 15:10:10;;;;;;;0.40;0.40;;;-4.80;99.90;;;;;;5092008;28;20426;-69
2021/12/25 15:12:57;;;;;;;0.40;0.40;;;-4.80;99.90;;;;;;5092036;28;20419;-69
2021/12/25 15:15:49;;;;;;;0.40;0.40;;;-4.90;99.90;;;;;;5091762;28;20452;-69
2021/12/25 15:18:39;;;;;;;0.40;0.40;;;-4.90;99.90;;;;;;5091170;28;20419;-69
2021/12/25 15:21:26;;;;;;;0.50;0.50;;;-5.00;99.90;;;;;;5091405;28;20891;-68
2021/12/25 15:24:16;;;;;;;0.40;0.40;;;-5.00;99.90;;;;;;5091909;28;20443;-68
2021/12/25 15:27:06;;;;;;;0.40;0.40;;;-4.90;99.90;;;;;;5091866;28;20793;-69
2021/12/25 15:29:55;;;;;;;0.40;0.40;;;-5.10;99.90;;;;;;5091593;28;20415;-69
2021/12/25 15:32:45;;;;;;;0.40;0.40;;;-5.10;99.90;;;;;;5091814;28;20426;-69
2021/12/25 15:35:35;;;;;;;0.40;0.40;;;-5.20;99.90;;;;;;5091690;28;20484;-69